sensor_id;sensor_type;location;lat;lon;timestamp;P1;durP1;ratioP1;P2;durP2;ratioP2
21162;SDS011;10739;52.198;20.908;2023-03-25T00:00:08;9.13;;;5.53;;
21162;SDS011;10739;52.198;20.908;2023-03-25T00:02:40;9.23;;;6.00;;
21162;SDS011;10739;52.198;20.908;2023-03-25T00:05:09;9.88;;;5.60;;
21162;SDS011;10739;52.198;20.908;2023-03-25T00:07:39;9.75;;;6.10;;
21162;SDS011;10739;52.198;20.908;2023-03-25T00:10:07;9.35;;;6.25;;
21162;SDS011;10739;52.198;20.908;2023-03-25T00:12:34;9.77;;;5.97;;
21162;SDS011;10739;52.198;20.908;2023-03-25T00:15:01;10.27;;;6.63;;
21162;SDS011;10739;52.198;20.908;2023-03-25T00:17:27;7.15;;;5.57;;
21162;SDS011;10739;52.198;20.908;2023-03-25T00:19:55;8.90;;;6.30;;
21162;SDS011;10739;52.198;20.908;2023-03-25T00:22:25;8.02;;;5.63;;
21162;SDS011;10739;52.198;20.908;2023-03-25T00:24:51;8.25;;;6.00;;
21162;SDS011;10739;52.198;20.908;2023-03-25T00:27:18;11.18;;;6.13;;
21162;SDS011;10739;52.198;20.908;2023-03-25T00:29:44;8.40;;;6.10;;
21162;SDS011;10739;52.198;20.908;2023-03-25T00:32:12;10.82;;;6.30;;
21162;SDS011;10739;52.198;20.908;2023-03-25T00:34:41;9.23;;;6.22;;
21162;SDS011;10739;52.198;20.908;2023-03-25T00:37:14;8.55;;;6.07;;
21162;SDS011;10739;52.198;20.908;2023-03-25T00:39:46;9.38;;;6.47;;
21162;SDS011;10739;52.198;20.908;2023-03-25T00:42:16;9.52;;;7.00;;
21162;SDS011;10739;52.198;20.908;2023-03-25T00:44:50;9.82;;;6.55;;
21162;SDS011;10739;52.198;20.908;2023-03-25T00:47:17;9.90;;;6.30;;
21162;SDS011;10739;52.198;20.908;2023-03-25T00:49:46;7.95;;;6.13;;
21162;SDS011;10739;52.198;20.908;2023-03-25T00:52:14;9.85;;;7.32;;
21162;SDS011;10739;52.198;20.908;2023-03-25T00:54:41;9.32;;;6.32;;
21162;SDS011;10739;52.198;20.908;2023-03-25T00:57:08;10.43;;;7.35;;
21162;SDS011;10739;52.198;20.908;2023-03-25T00:59:34;11.30;;;7.10;;
21162;SDS011;10739;52.198;20.908;2023-03-25T01:02:01;11.93;;;6.50;;
21162;SDS011;10739;52.198;20.908;2023-03-25T01:04:28;12.05;;;7.20;;
21162;SDS011;10739;52.198;20.908;2023-03-25T01:06:54;12.65;;;7.20;;
21162;SDS011;10739;52.198;20.908;2023-03-25T01:09:20;14.18;;;7.35;;
21162;SDS011;10739;52.198;20.908;2023-03-25T01:11:47;13.38;;;7.32;;
21162;SDS011;10739;52.198;20.908;2023-03-25T01:14:17;10.27;;;6.82;;
21162;SDS011;10739;52.198;20.908;2023-03-25T01:16:48;11.48;;;6.95;;
21162;SDS011;10739;52.198;20.908;2023-03-25T01:19:14;14.57;;;8.02;;
21162;SDS011;10739;52.198;20.908;2023-03-25T01:21:41;9.23;;;7.38;;
21162;SDS011;10739;52.198;20.908;2023-03-25T01:24:10;11.38;;;7.18;;
21162;SDS011;10739;52.198;20.908;2023-03-25T01:26:40;10.75;;;7.80;;
21162;SDS011;10739;52.198;20.908;2023-03-25T01:29:11;11.02;;;7.43;;
21162;SDS011;10739;52.198;20.908;2023-03-25T01:31:41;12.93;;;8.00;;
21162;SDS011;10739;52.198;20.908;2023-03-25T01:34:08;12.10;;;8.45;;
21162;SDS011;10739;52.198;20.908;2023-03-25T01:36:35;13.77;;;8.32;;
21162;SDS011;10739;52.198;20.908;2023-03-25T01:39:04;12.68;;;8.15;;
21162;SDS011;10739;52.198;20.908;2023-03-25T01:41:34;9.98;;;7.97;;
21162;SDS011;10739;52.198;20.908;2023-03-25T01:46:55;13.37;;;8.70;;
21162;SDS011;10739;52.198;20.908;2023-03-25T01:52:08;13.57;;;8.57;;
21162;SDS011;10739;52.198;20.908;2023-03-25T01:54:41;13.80;;;8.55;;
21162;SDS011;10739;52.198;20.908;2023-03-25T01:57:10;11.35;;;8.20;;
21162;SDS011;10739;52.198;20.908;2023-03-25T01:59:42;15.35;;;9.02;;
21162;SDS011;10739;52.198;20.908;2023-03-25T02:02:08;15.45;;;8.70;;
21162;SDS011;10739;52.198;20.908;2023-03-25T02:07:43;14.43;;;8.93;;
21162;SDS011;10739;52.198;20.908;2023-03-25T02:10:13;15.00;;;9.45;;
21162;SDS011;10739;52.198;20.908;2023-03-25T02:12:42;13.75;;;8.82;;
21162;SDS011;10739;52.198;20.908;2023-03-25T02:15:10;15.05;;;9.38;;
21162;SDS011;10739;52.198;20.908;2023-03-25T02:27:14;14.95;;;9.10;;
21162;SDS011;10739;52.198;20.908;2023-03-25T02:38:58;12.77;;;9.68;;
21162;SDS011;10739;52.198;20.908;2023-03-25T02:44:58;14.95;;;9.75;;
21162;SDS011;10739;52.198;20.908;2023-03-25T02:47:51;15.07;;;10.43;;
21162;SDS011;10739;52.198;20.908;2023-03-25T02:51:08;15.73;;;10.30;;
21162;SDS011;10739;52.198;20.908;2023-03-25T02:53:25;13.35;;;9.50;;
21162;SDS011;10739;52.198;20.908;2023-03-25T02:56:00;16.38;;;10.65;;
21162;SDS011;10739;52.198;20.908;2023-03-25T02:58:35;13.18;;;9.95;;
21162;SDS011;10739;52.198;20.908;2023-03-25T03:01:04;16.05;;;10.35;;
21162;SDS011;10739;52.198;20.908;2023-03-25T03:03:34;16.40;;;10.40;;
21162;SDS011;10739;52.198;20.908;2023-03-25T03:06:02;17.50;;;10.48;;
21162;SDS011;10739;52.198;20.908;2023-03-25T03:08:42;14.82;;;10.68;;
21162;SDS011;10739;52.198;20.908;2023-03-25T03:11:18;17.98;;;10.40;;
21162;SDS011;10739;52.198;20.908;2023-03-25T03:14:51;14.65;;;10.55;;
21162;SDS011;10739;52.198;20.908;2023-03-25T03:19:59;14.32;;;10.00;;
21162;SDS011;10739;52.198;20.908;2023-03-25T03:22:48;16.58;;;10.95;;
21162;SDS011;10739;52.198;20.908;2023-03-25T03:25:34;17.17;;;11.20;;
21162;SDS011;10739;52.198;20.908;2023-03-25T03:28:50;18.08;;;10.93;;
21162;SDS011;10739;52.198;20.908;2023-03-25T03:31:51;17.05;;;11.18;;
21162;SDS011;10739;52.198;20.908;2023-03-25T03:34:41;22.17;;;11.48;;
21162;SDS011;10739;52.198;20.908;2023-03-25T03:37:24;17.35;;;11.55;;
21162;SDS011;10739;52.198;20.908;2023-03-25T03:39:58;17.48;;;11.93;;
21162;SDS011;10739;52.198;20.908;2023-03-25T03:42:34;18.65;;;12.07;;
21162;SDS011;10739;52.198;20.908;2023-03-25T03:45:11;18.58;;;12.27;;
21162;SDS011;10739;52.198;20.908;2023-03-25T03:47:47;17.73;;;12.30;;
21162;SDS011;10739;52.198;20.908;2023-03-25T03:50:25;19.35;;;12.00;;
21162;SDS011;10739;52.198;20.908;2023-03-25T03:53:02;20.92;;;12.10;;
21162;SDS011;10739;52.198;20.908;2023-03-25T03:56:04;20.52;;;12.02;;
21162;SDS011;10739;52.198;20.908;2023-03-25T03:58:41;16.88;;;11.75;;
21162;SDS011;10739;52.198;20.908;2023-03-25T04:04:06;22.13;;;12.65;;
21162;SDS011;10739;52.198;20.908;2023-03-25T04:06:55;17.30;;;12.60;;
21162;SDS011;10739;52.198;20.908;2023-03-25T04:13:02;26.67;;;13.30;;
21162;SDS011;10739;52.198;20.908;2023-03-25T04:15:35;19.15;;;13.68;;
21162;SDS011;10739;52.198;20.908;2023-03-25T04:18:02;28.42;;;13.15;;
21162;SDS011;10739;52.198;20.908;2023-03-25T04:20:29;18.05;;;12.90;;
21162;SDS011;10739;52.198;20.908;2023-03-25T04:23:03;23.95;;;13.88;;
21162;SDS011;10739;52.198;20.908;2023-03-25T04:25:30;21.85;;;13.02;;
21162;SDS011;10739;52.198;20.908;2023-03-25T04:27:59;19.70;;;13.45;;
21162;SDS011;10739;52.198;20.908;2023-03-25T04:30:26;20.73;;;13.30;;
21162;SDS011;10739;52.198;20.908;2023-03-25T04:32:55;19.52;;;14.05;;
21162;SDS011;10739;52.198;20.908;2023-03-25T04:35:21;22.02;;;14.30;;
21162;SDS011;10739;52.198;20.908;2023-03-25T04:37:50;22.63;;;14.77;;
21162;SDS011;10739;52.198;20.908;2023-03-25T04:40:18;21.77;;;13.50;;
21162;SDS011;10739;52.198;20.908;2023-03-25T04:42:45;21.83;;;13.90;;
21162;SDS011;10739;52.198;20.908;2023-03-25T04:45:12;20.73;;;14.25;;
21162;SDS011;10739;52.198;20.908;2023-03-25T04:47:41;17.38;;;13.82;;
21162;SDS011;10739;52.198;20.908;2023-03-25T04:50:23;20.10;;;14.05;;
21162;SDS011;10739;52.198;20.908;2023-03-25T04:52:53;25.17;;;14.98;;
21162;SDS011;10739;52.198;20.908;2023-03-25T04:55:22;21.95;;;15.32;;
21162;SDS011;10739;52.198;20.908;2023-03-25T04:57:50;20.80;;;15.02;;
21162;SDS011;10739;52.198;20.908;2023-03-25T05:00:19;21.63;;;14.88;;
21162;SDS011;10739;52.198;20.908;2023-03-25T05:02:49;21.35;;;14.80;;
21162;SDS011;10739;52.198;20.908;2023-03-25T05:05:19;25.77;;;14.75;;
21162;SDS011;10739;52.198;20.908;2023-03-25T05:07:50;22.20;;;14.75;;
21162;SDS011;10739;52.198;20.908;2023-03-25T05:10:20;21.35;;;14.68;;
21162;SDS011;10739;52.198;20.908;2023-03-25T05:12:48;27.02;;;15.25;;
21162;SDS011;10739;52.198;20.908;2023-03-25T05:15:15;21.50;;;15.77;;
21162;SDS011;10739;52.198;20.908;2023-03-25T05:17:42;24.27;;;15.55;;
21162;SDS011;10739;52.198;20.908;2023-03-25T05:20:09;25.95;;;15.93;;
21162;SDS011;10739;52.198;20.908;2023-03-25T05:22:36;24.83;;;15.35;;
21162;SDS011;10739;52.198;20.908;2023-03-25T05:25:04;25.20;;;16.08;;
21162;SDS011;10739;52.198;20.908;2023-03-25T05:27:33;27.00;;;16.67;;
21162;SDS011;10739;52.198;20.908;2023-03-25T05:30:01;25.45;;;16.65;;
21162;SDS011;10739;52.198;20.908;2023-03-25T05:32:28;26.17;;;18.13;;
21162;SDS011;10739;52.198;20.908;2023-03-25T05:34:58;36.03;;;22.92;;
21162;SDS011;10739;52.198;20.908;2023-03-25T05:37:25;32.35;;;25.70;;
21162;SDS011;10739;52.198;20.908;2023-03-25T05:39:52;34.90;;;27.73;;
21162;SDS011;10739;52.198;20.908;2023-03-25T05:42:18;39.85;;;31.83;;
21162;SDS011;10739;52.198;20.908;2023-03-25T05:44:51;40.22;;;34.33;;
21162;SDS011;10739;52.198;20.908;2023-03-25T05:47:21;45.35;;;32.97;;
21162;SDS011;10739;52.198;20.908;2023-03-25T05:49:50;40.58;;;33.67;;
21162;SDS011;10739;52.198;20.908;2023-03-25T05:52:18;37.45;;;30.73;;
21162;SDS011;10739;52.198;20.908;2023-03-25T05:54:48;37.53;;;30.40;;
21162;SDS011;10739;52.198;20.908;2023-03-25T05:57:16;36.47;;;28.63;;
21162;SDS011;10739;52.198;20.908;2023-03-25T05:59:42;37.25;;;28.70;;
21162;SDS011;10739;52.198;20.908;2023-03-25T06:02:11;38.55;;;27.73;;
21162;SDS011;10739;52.198;20.908;2023-03-25T06:04:40;35.08;;;27.27;;
21162;SDS011;10739;52.198;20.908;2023-03-25T06:07:07;33.15;;;25.55;;
21162;SDS011;10739;52.198;20.908;2023-03-25T06:09:47;37.78;;;27.25;;
21162;SDS011;10739;52.198;20.908;2023-03-25T06:12:15;34.72;;;26.23;;
21162;SDS011;10739;52.198;20.908;2023-03-25T06:14:44;30.50;;;23.70;;
21162;SDS011;10739;52.198;20.908;2023-03-25T06:17:12;29.58;;;19.40;;
21162;SDS011;10739;52.198;20.908;2023-03-25T06:19:43;25.30;;;18.10;;
21162;SDS011;10739;52.198;20.908;2023-03-25T06:22:10;22.10;;;16.10;;
21162;SDS011;10739;52.198;20.908;2023-03-25T06:24:37;24.25;;;16.63;;
21162;SDS011;10739;52.198;20.908;2023-03-25T06:27:15;23.13;;;16.48;;
21162;SDS011;10739;52.198;20.908;2023-03-25T06:29:43;25.73;;;17.15;;
21162;SDS011;10739;52.198;20.908;2023-03-25T06:32:12;28.17;;;17.15;;
21162;SDS011;10739;52.198;20.908;2023-03-25T06:34:40;22.63;;;16.35;;
21162;SDS011;10739;52.198;20.908;2023-03-25T06:37:07;26.17;;;16.92;;
21162;SDS011;10739;52.198;20.908;2023-03-25T06:39:34;22.77;;;16.55;;
21162;SDS011;10739;52.198;20.908;2023-03-25T06:42:02;23.52;;;18.13;;
21162;SDS011;10739;52.198;20.908;2023-03-25T06:44:30;26.38;;;17.48;;
21162;SDS011;10739;52.198;20.908;2023-03-25T06:46:56;23.73;;;16.48;;
21162;SDS011;10739;52.198;20.908;2023-03-25T06:49:24;23.55;;;15.38;;
21162;SDS011;10739;52.198;20.908;2023-03-25T06:51:51;21.00;;;14.52;;
21162;SDS011;10739;52.198;20.908;2023-03-25T06:54:17;25.17;;;15.63;;
21162;SDS011;10739;52.198;20.908;2023-03-25T06:56:43;21.50;;;15.30;;
21162;SDS011;10739;52.198;20.908;2023-03-25T06:59:09;25.70;;;17.17;;
21162;SDS011;10739;52.198;20.908;2023-03-25T07:01:36;21.77;;;16.48;;
21162;SDS011;10739;52.198;20.908;2023-03-25T07:04:02;23.45;;;15.82;;
21162;SDS011;10739;52.198;20.908;2023-03-25T07:06:28;23.02;;;17.83;;
21162;SDS011;10739;52.198;20.908;2023-03-25T07:08:55;22.67;;;16.85;;
21162;SDS011;10739;52.198;20.908;2023-03-25T07:11:24;23.20;;;14.43;;
21162;SDS011;10739;52.198;20.908;2023-03-25T07:13:53;21.23;;;12.90;;
21162;SDS011;10739;52.198;20.908;2023-03-25T07:16:22;18.25;;;13.20;;
21162;SDS011;10739;52.198;20.908;2023-03-25T07:18:50;17.10;;;12.10;;
21162;SDS011;10739;52.198;20.908;2023-03-25T07:21:16;21.50;;;13.00;;
21162;SDS011;10739;52.198;20.908;2023-03-25T07:23:43;18.38;;;11.82;;
21162;SDS011;10739;52.198;20.908;2023-03-25T07:26:09;15.43;;;11.18;;
21162;SDS011;10739;52.198;20.908;2023-03-25T07:28:37;15.52;;;11.30;;
21162;SDS011;10739;52.198;20.908;2023-03-25T07:31:12;17.65;;;10.60;;
21162;SDS011;10739;52.198;20.908;2023-03-25T07:33:41;14.43;;;9.52;;
21162;SDS011;10739;52.198;20.908;2023-03-25T07:36:09;14.10;;;10.23;;
21162;SDS011;10739;52.198;20.908;2023-03-25T07:38:37;17.60;;;10.82;;
21162;SDS011;10739;52.198;20.908;2023-03-25T07:41:04;13.52;;;10.15;;
21162;SDS011;10739;52.198;20.908;2023-03-25T07:43:36;15.40;;;10.32;;
21162;SDS011;10739;52.198;20.908;2023-03-25T07:46:04;15.88;;;9.98;;
21162;SDS011;10739;52.198;20.908;2023-03-25T07:48:31;16.27;;;9.48;;
21162;SDS011;10739;52.198;20.908;2023-03-25T07:50:57;11.48;;;8.93;;
21162;SDS011;10739;52.198;20.908;2023-03-25T07:53:23;13.48;;;9.32;;
21162;SDS011;10739;52.198;20.908;2023-03-25T07:55:49;13.48;;;9.80;;
21162;SDS011;10739;52.198;20.908;2023-03-25T07:58:16;20.20;;;10.07;;
21162;SDS011;10739;52.198;20.908;2023-03-25T08:00:43;19.13;;;10.65;;
21162;SDS011;10739;52.198;20.908;2023-03-25T08:03:10;17.50;;;10.63;;
21162;SDS011;10739;52.198;20.908;2023-03-25T08:05:42;12.38;;;9.32;;
21162;SDS011;10739;52.198;20.908;2023-03-25T08:08:13;16.85;;;10.40;;
21162;SDS011;10739;52.198;20.908;2023-03-25T08:10:40;18.15;;;10.77;;
21162;SDS011;10739;52.198;20.908;2023-03-25T08:13:08;15.20;;;10.02;;
21162;SDS011;10739;52.198;20.908;2023-03-25T08:15:35;16.23;;;10.00;;
21162;SDS011;10739;52.198;20.908;2023-03-25T08:18:01;17.20;;;9.23;;
21162;SDS011;10739;52.198;20.908;2023-03-25T08:20:28;20.38;;;10.57;;
21162;SDS011;10739;52.198;20.908;2023-03-25T08:22:54;14.10;;;8.18;;
21162;SDS011;10739;52.198;20.908;2023-03-25T08:25:22;13.63;;;7.32;;
21162;SDS011;10739;52.198;20.908;2023-03-25T08:27:50;12.88;;;6.97;;
21162;SDS011;10739;52.198;20.908;2023-03-25T08:30:16;12.80;;;6.90;;
21162;SDS011;10739;52.198;20.908;2023-03-25T08:32:42;14.38;;;7.05;;
21162;SDS011;10739;52.198;20.908;2023-03-25T08:35:10;9.80;;;6.82;;
21162;SDS011;10739;52.198;20.908;2023-03-25T08:37:38;11.40;;;7.10;;
21162;SDS011;10739;52.198;20.908;2023-03-25T08:40:04;12.73;;;6.63;;
21162;SDS011;10739;52.198;20.908;2023-03-25T08:42:33;12.48;;;6.53;;
21162;SDS011;10739;52.198;20.908;2023-03-25T08:45:01;12.80;;;6.40;;
21162;SDS011;10739;52.198;20.908;2023-03-25T08:47:29;11.75;;;6.57;;
21162;SDS011;10739;52.198;20.908;2023-03-25T08:49:55;12.63;;;6.13;;
21162;SDS011;10739;52.198;20.908;2023-03-25T08:52:21;10.65;;;6.60;;
21162;SDS011;10739;52.198;20.908;2023-03-25T08:54:48;13.93;;;7.07;;
21162;SDS011;10739;52.198;20.908;2023-03-25T08:57:14;11.15;;;6.10;;
21162;SDS011;10739;52.198;20.908;2023-03-25T08:59:41;14.00;;;6.53;;
21162;SDS011;10739;52.198;20.908;2023-03-25T09:02:08;13.07;;;6.45;;
21162;SDS011;10739;52.198;20.908;2023-03-25T09:04:38;9.45;;;5.40;;
21162;SDS011;10739;52.198;20.908;2023-03-25T09:07:05;9.88;;;5.80;;
21162;SDS011;10739;52.198;20.908;2023-03-25T09:09:38;8.43;;;5.10;;
21162;SDS011;10739;52.198;20.908;2023-03-25T09:12:06;10.15;;;5.93;;
21162;SDS011;10739;52.198;20.908;2023-03-25T09:14:33;8.18;;;5.40;;
21162;SDS011;10739;52.198;20.908;2023-03-25T09:16:59;9.00;;;5.20;;
21162;SDS011;10739;52.198;20.908;2023-03-25T09:19:26;10.63;;;5.28;;
21162;SDS011;10739;52.198;20.908;2023-03-25T09:21:52;10.90;;;5.75;;
21162;SDS011;10739;52.198;20.908;2023-03-25T09:24:19;10.13;;;5.65;;
21162;SDS011;10739;52.198;20.908;2023-03-25T09:26:47;9.13;;;6.07;;
21162;SDS011;10739;52.198;20.908;2023-03-25T09:29:13;9.02;;;5.75;;
21162;SDS011;10739;52.198;20.908;2023-03-25T09:31:39;10.10;;;6.18;;
21162;SDS011;10739;52.198;20.908;2023-03-25T09:34:05;9.77;;;5.97;;
21162;SDS011;10739;52.198;20.908;2023-03-25T09:36:32;8.07;;;5.43;;
21162;SDS011;10739;52.198;20.908;2023-03-25T09:38:58;8.63;;;4.88;;
21162;SDS011;10739;52.198;20.908;2023-03-25T09:44:18;9.77;;;5.18;;
21162;SDS011;10739;52.198;20.908;2023-03-25T09:46:46;10.27;;;6.45;;
21162;SDS011;10739;52.198;20.908;2023-03-25T09:49:15;11.93;;;6.10;;
21162;SDS011;10739;52.198;20.908;2023-03-25T09:51:47;10.80;;;5.40;;
21162;SDS011;10739;52.198;20.908;2023-03-25T09:54:30;13.38;;;5.53;;
21162;SDS011;10739;52.198;20.908;2023-03-25T09:57:03;10.70;;;6.13;;
21162;SDS011;10739;52.198;20.908;2023-03-25T09:59:42;11.57;;;5.95;;
21162;SDS011;10739;52.198;20.908;2023-03-25T10:11:01;8.50;;;5.60;;
21162;SDS011;10739;52.198;20.908;2023-03-25T10:14:15;15.02;;;5.95;;
21162;SDS011;10739;52.198;20.908;2023-03-25T10:22:33;9.30;;;4.95;;
21162;SDS011;10739;52.198;20.908;2023-03-25T10:25:17;6.88;;;4.65;;
21162;SDS011;10739;52.198;20.908;2023-03-25T10:27:51;9.65;;;5.05;;
21162;SDS011;10739;52.198;20.908;2023-03-25T10:30:22;8.93;;;4.43;;
21162;SDS011;10739;52.198;20.908;2023-03-25T10:33:04;12.00;;;4.23;;
21162;SDS011;10739;52.198;20.908;2023-03-25T10:35:49;8.15;;;4.32;;
21162;SDS011;10739;52.198;20.908;2023-03-25T10:38:20;7.20;;;4.35;;
21162;SDS011;10739;52.198;20.908;2023-03-25T10:40:49;7.20;;;3.20;;
21162;SDS011;10739;52.198;20.908;2023-03-25T10:43:41;5.68;;;2.80;;
21162;SDS011;10739;52.198;20.908;2023-03-25T10:48:34;6.72;;;3.97;;
21162;SDS011;10739;52.198;20.908;2023-03-25T10:53:34;7.55;;;3.05;;
21162;SDS011;10739;52.198;20.908;2023-03-25T10:56:02;7.22;;;3.60;;
21162;SDS011;10739;52.198;20.908;2023-03-25T10:58:36;7.10;;;3.33;;
21162;SDS011;10739;52.198;20.908;2023-03-25T11:01:14;12.25;;;4.80;;
21162;SDS011;10739;52.198;20.908;2023-03-25T11:03:48;4.80;;;2.92;;
21162;SDS011;10739;52.198;20.908;2023-03-25T11:06:24;4.60;;;3.08;;
21162;SDS011;10739;52.198;20.908;2023-03-25T11:09:40;5.60;;;2.60;;
21162;SDS011;10739;52.198;20.908;2023-03-25T11:12:01;5.78;;;3.05;;
21162;SDS011;10739;52.198;20.908;2023-03-25T11:14:30;4.93;;;2.80;;
21162;SDS011;10739;52.198;20.908;2023-03-25T11:17:14;6.00;;;2.65;;
21162;SDS011;10739;52.198;20.908;2023-03-25T11:19:52;5.40;;;3.10;;
21162;SDS011;10739;52.198;20.908;2023-03-25T11:22:28;4.50;;;2.50;;
21162;SDS011;10739;52.198;20.908;2023-03-25T11:25:02;7.22;;;2.80;;
21162;SDS011;10739;52.198;20.908;2023-03-25T11:27:40;8.23;;;3.20;;
21162;SDS011;10739;52.198;20.908;2023-03-25T11:30:21;6.47;;;3.10;;
21162;SDS011;10739;52.198;20.908;2023-03-25T11:35:29;7.10;;;3.25;;
21162;SDS011;10739;52.198;20.908;2023-03-25T11:38:01;10.13;;;3.40;;
21162;SDS011;10739;52.198;20.908;2023-03-25T11:40:53;7.85;;;2.97;;
21162;SDS011;10739;52.198;20.908;2023-03-25T11:43:24;6.35;;;3.35;;
21162;SDS011;10739;52.198;20.908;2023-03-25T11:46:06;6.50;;;3.20;;
21162;SDS011;10739;52.198;20.908;2023-03-25T11:48:44;6.32;;;3.60;;
21162;SDS011;10739;52.198;20.908;2023-03-25T11:51:22;7.95;;;3.00;;
21162;SDS011;10739;52.198;20.908;2023-03-25T11:54:06;7.35;;;3.10;;
21162;SDS011;10739;52.198;20.908;2023-03-25T11:56:39;5.22;;;2.83;;
21162;SDS011;10739;52.198;20.908;2023-03-25T11:59:17;5.22;;;3.30;;
21162;SDS011;10739;52.198;20.908;2023-03-25T12:02:01;8.38;;;3.85;;
21162;SDS011;10739;52.198;20.908;2023-03-25T12:05:03;6.47;;;3.08;;
21162;SDS011;10739;52.198;20.908;2023-03-25T12:07:40;6.03;;;3.78;;
21162;SDS011;10739;52.198;20.908;2023-03-25T12:10:33;5.65;;;3.50;;
21162;SDS011;10739;52.198;20.908;2023-03-25T12:13:25;7.65;;;3.95;;
21162;SDS011;10739;52.198;20.908;2023-03-25T12:21:42;6.03;;;3.40;;
21162;SDS011;10739;52.198;20.908;2023-03-25T12:28:14;9.95;;;3.90;;
21162;SDS011;10739;52.198;20.908;2023-03-25T12:31:07;5.15;;;3.25;;
21162;SDS011;10739;52.198;20.908;2023-03-25T12:36:33;5.35;;;3.38;;
21162;SDS011;10739;52.198;20.908;2023-03-25T12:42:07;11.10;;;3.05;;
21162;SDS011;10739;52.198;20.908;2023-03-25T12:48:01;12.55;;;5.68;;
21162;SDS011;10739;52.198;20.908;2023-03-25T12:50:57;5.15;;;2.80;;
21162;SDS011;10739;52.198;20.908;2023-03-25T13:06:40;10.70;;;4.50;;
21162;SDS011;10739;52.198;20.908;2023-03-25T13:09:48;5.07;;;3.20;;
21162;SDS011;10739;52.198;20.908;2023-03-25T13:13:02;5.93;;;3.13;;
21162;SDS011;10739;52.198;20.908;2023-03-25T13:16:03;7.10;;;2.85;;
21162;SDS011;10739;52.198;20.908;2023-03-25T13:19:01;7.20;;;3.45;;
21162;SDS011;10739;52.198;20.908;2023-03-25T13:21:56;6.00;;;3.78;;
21162;SDS011;10739;52.198;20.908;2023-03-25T13:24:57;10.07;;;4.45;;
21162;SDS011;10739;52.198;20.908;2023-03-25T13:27:49;14.48;;;4.65;;
21162;SDS011;10739;52.198;20.908;2023-03-25T13:30:39;8.63;;;4.85;;
21162;SDS011;10739;52.198;20.908;2023-03-25T13:33:32;9.75;;;4.88;;
21162;SDS011;10739;52.198;20.908;2023-03-25T13:36:27;11.85;;;5.80;;
21162;SDS011;10739;52.198;20.908;2023-03-25T13:39:21;12.90;;;5.03;;
21162;SDS011;10739;52.198;20.908;2023-03-25T13:42:02;11.45;;;4.78;;
21162;SDS011;10739;52.198;20.908;2023-03-25T13:44:40;13.32;;;4.97;;
21162;SDS011;10739;52.198;20.908;2023-03-25T13:49:49;12.07;;;5.15;;
21162;SDS011;10739;52.198;20.908;2023-03-25T13:52:33;10.30;;;5.07;;
21162;SDS011;10739;52.198;20.908;2023-03-25T13:55:14;9.77;;;5.30;;
21162;SDS011;10739;52.198;20.908;2023-03-25T14:00:53;8.23;;;4.22;;
21162;SDS011;10739;52.198;20.908;2023-03-25T14:03:50;9.63;;;4.68;;
21162;SDS011;10739;52.198;20.908;2023-03-25T14:12:38;9.02;;;4.53;;
21162;SDS011;10739;52.198;20.908;2023-03-25T14:15:17;8.82;;;4.00;;
21162;SDS011;10739;52.198;20.908;2023-03-25T14:17:50;11.05;;;4.35;;
21162;SDS011;10739;52.198;20.908;2023-03-25T14:20:36;9.95;;;4.47;;
21162;SDS011;10739;52.198;20.908;2023-03-25T14:23:11;8.57;;;4.43;;
21162;SDS011;10739;52.198;20.908;2023-03-25T14:25:44;7.93;;;4.80;;
21162;SDS011;10739;52.198;20.908;2023-03-25T14:28:37;10.18;;;4.97;;
21162;SDS011;10739;52.198;20.908;2023-03-25T14:31:24;11.75;;;5.00;;
21162;SDS011;10739;52.198;20.908;2023-03-25T14:36:27;9.70;;;4.28;;
21162;SDS011;10739;52.198;20.908;2023-03-25T14:39:36;8.55;;;3.90;;
21162;SDS011;10739;52.198;20.908;2023-03-25T14:42:02;6.25;;;3.65;;
21162;SDS011;10739;52.198;20.908;2023-03-25T14:44:41;4.65;;;3.20;;
21162;SDS011;10739;52.198;20.908;2023-03-25T14:54:57;6.50;;;1.75;;
21162;SDS011;10739;52.198;20.908;2023-03-25T14:57:31;2.83;;;1.20;;
21162;SDS011;10739;52.198;20.908;2023-03-25T15:00:08;6.25;;;1.02;;
21162;SDS011;10739;52.198;20.908;2023-03-25T15:02:50;1.27;;;0.90;;
21162;SDS011;10739;52.198;20.908;2023-03-25T15:05:29;3.00;;;1.73;;
21162;SDS011;10739;52.198;20.908;2023-03-25T15:18:10;1.40;;;0.85;;
21162;SDS011;10739;52.198;20.908;2023-03-25T15:21:10;3.25;;;1.40;;
21162;SDS011;10739;52.198;20.908;2023-03-25T15:26:33;1.88;;;1.42;;
21162;SDS011;10739;52.198;20.908;2023-03-25T15:40:56;4.75;;;3.65;;
21162;SDS011;10739;52.198;20.908;2023-03-25T15:49:42;6.50;;;2.55;;
21162;SDS011;10739;52.198;20.908;2023-03-25T15:55:19;4.05;;;2.40;;
21162;SDS011;10739;52.198;20.908;2023-03-25T15:58:04;7.30;;;2.55;;
21162;SDS011;10739;52.198;20.908;2023-03-25T16:00:49;2.75;;;1.90;;
21162;SDS011;10739;52.198;20.908;2023-03-25T16:03:25;4.05;;;1.77;;
21162;SDS011;10739;52.198;20.908;2023-03-25T16:05:58;5.20;;;2.30;;
21162;SDS011;10739;52.198;20.908;2023-03-25T16:08:38;6.60;;;1.90;;
21162;SDS011;10739;52.198;20.908;2023-03-25T16:13:58;7.70;;;2.38;;
21162;SDS011;10739;52.198;20.908;2023-03-25T16:19:20;3.50;;;2.42;;
21162;SDS011;10739;52.198;20.908;2023-03-25T16:22:26;7.13;;;2.78;;
21162;SDS011;10739;52.198;20.908;2023-03-25T16:25:05;4.90;;;2.75;;
21162;SDS011;10739;52.198;20.908;2023-03-25T16:27:42;4.63;;;3.20;;
21162;SDS011;10739;52.198;20.908;2023-03-25T16:30:22;5.22;;;3.33;;
21162;SDS011;10739;52.198;20.908;2023-03-25T16:35:39;5.30;;;3.90;;
21162;SDS011;10739;52.198;20.908;2023-03-25T16:38:13;6.75;;;3.92;;
21162;SDS011;10739;52.198;20.908;2023-03-25T16:40:46;4.78;;;3.30;;
21162;SDS011;10739;52.198;20.908;2023-03-25T16:43:18;7.07;;;3.20;;
21162;SDS011;10739;52.198;20.908;2023-03-25T16:45:49;4.13;;;3.35;;
21162;SDS011;10739;52.198;20.908;2023-03-25T16:48:31;5.03;;;3.50;;
21162;SDS011;10739;52.198;20.908;2023-03-25T16:51:07;6.45;;;4.13;;
21162;SDS011;10739;52.198;20.908;2023-03-25T16:53:53;6.65;;;3.72;;
21162;SDS011;10739;52.198;20.908;2023-03-25T16:59:04;6.90;;;4.55;;
21162;SDS011;10739;52.198;20.908;2023-03-25T17:01:35;10.20;;;5.05;;
21162;SDS011;10739;52.198;20.908;2023-03-25T17:04:20;10.48;;;5.60;;
21162;SDS011;10739;52.198;20.908;2023-03-25T17:06:58;8.32;;;4.93;;
21162;SDS011;10739;52.198;20.908;2023-03-25T17:09:28;8.63;;;5.65;;
21162;SDS011;10739;52.198;20.908;2023-03-25T17:12:01;8.27;;;5.60;;
21162;SDS011;10739;52.198;20.908;2023-03-25T17:17:08;10.55;;;5.78;;
21162;SDS011;10739;52.198;20.908;2023-03-25T17:20:05;10.23;;;6.57;;
21162;SDS011;10739;52.198;20.908;2023-03-25T17:22:45;10.68;;;7.10;;
21162;SDS011;10739;52.198;20.908;2023-03-25T17:25:55;11.10;;;6.05;;
21162;SDS011;10739;52.198;20.908;2023-03-25T17:28:39;11.98;;;7.13;;
21162;SDS011;10739;52.198;20.908;2023-03-25T17:34:10;14.52;;;8.10;;
21162;SDS011;10739;52.198;20.908;2023-03-25T17:36:49;12.88;;;8.27;;
21162;SDS011;10739;52.198;20.908;2023-03-25T17:39:31;14.45;;;8.75;;
21162;SDS011;10739;52.198;20.908;2023-03-25T17:41:59;15.25;;;9.13;;
21162;SDS011;10739;52.198;20.908;2023-03-25T17:44:32;14.00;;;9.13;;
21162;SDS011;10739;52.198;20.908;2023-03-25T17:47:04;16.15;;;9.20;;
21162;SDS011;10739;52.198;20.908;2023-03-25T17:49:33;17.25;;;10.02;;